Time;durP1;ratioP1;P1;durP2;ratioP2;P2;SDS_P1;SDS_P2;PMS_P1;PMS_P2;Temp;Humidity;BMP_temperature;BMP_pressure;BME280_temperature;BME280_humidity;BME280_pressure;Samples;Min_cycle;Max_cycle;Signal;HPM_P1;HPM_P2
2022/05/05 00:01:18;;;;;;;2.30;2.10;;;13.00;99.90;;;;;;5054729;28;20442;-47
2022/05/05 00:03:46;;;;;;;4.23;2.63;;;13.00;99.90;;;;;;5053998;28;20445;-47
2022/05/05 00:06:13;;;;;;;3.50;2.30;;;13.10;99.90;;;;;;5054842;28;20857;-47
2022/05/05 00:08:40;;;;;;;2.67;2.47;;;13.00;99.90;;;;;;5055458;28;20905;-46
2022/05/05 00:16:37;;;;;;;3.23;2.30;;;13.00;99.90;;;;;;5054440;28;20632;-49
2022/05/05 00:19:04;;;;;;;2.97;2.40;;;12.90;99.90;;;;;;5054387;28;20508;-48
2022/05/05 00:21:31;;;;;;;3.00;2.73;;;12.70;99.90;;;;;;5054708;28;20507;-47
2022/05/05 00:23:58;;;;;;;2.50;2.27;;;12.60;99.90;;;;;;5054149;28;20477;-49
2022/05/05 00:26:25;;;;;;;3.00;2.60;;;12.60;99.90;;;;;;5053889;28;20473;-47
2022/05/05 00:28:52;;;;;;;2.63;2.43;;;12.60;99.90;;;;;;5054506;28;20522;-48
2022/05/05 00:31:18;;;;;;;3.30;2.50;;;12.60;99.90;;;;;;5053822;28;20954;-47
2022/05/05 00:33:47;;;;;;;3.07;2.50;;;12.70;99.90;;;;;;5054083;28;20473;-46
2022/05/05 00:36:14;;;;;;;3.70;2.60;;;12.90;99.90;;;;;;5053961;28;20477;-46
2022/05/05 00:38:41;;;;;;;3.30;3.00;;;12.90;99.90;;;;;;5053697;28;20806;-50
2022/05/05 00:41:09;;;;;;;3.70;2.30;;;12.90;99.90;;;;;;5054047;28;20495;-47
2022/05/05 00:43:36;;;;;;;2.63;2.20;;;13.10;99.90;;;;;;5053872;28;20449;-46
2022/05/05 00:46:04;;;;;;;2.10;1.90;;;13.00;99.90;;;;;;5053919;28;20473;-49
2022/05/05 00:48:31;;;;;;;3.07;2.77;;;13.00;99.90;;;;;;5053870;28;20503;-47
2022/05/05 00:51:00;;;;;;;4.63;2.37;;;12.90;99.90;;;;;;5053847;28;20464;-46
2022/05/05 00:53:27;;;;;;;3.20;2.47;;;12.80;99.90;;;;;;5053281;28;20441;-47
2022/05/05 00:55:57;;;;;;;2.33;2.13;;;12.60;99.90;;;;;;5053677;28;21016;-47
2022/05/05 00:58:25;;;;;;;3.10;2.80;;;12.60;99.90;;;;;;5053892;28;20503;-46
2022/05/05 01:00:52;;;;;;;3.43;2.60;;;12.30;99.90;;;;;;5053727;28;20484;-49
2022/05/05 01:03:20;;;;;;;2.73;2.53;;;12.20;99.90;;;;;;5053311;28;20472;-47
2022/05/05 01:05:47;;;;;;;4.27;3.00;;;12.00;99.90;;;;;;5053393;28;20569;-47
2022/05/05 01:08:15;;;;;;;3.10;2.40;;;12.30;99.90;;;;;;5053656;28;20469;-46
2022/05/05 01:10:42;;;;;;;6.60;2.60;;;12.50;99.90;;;;;;5053510;28;20477;-46
2022/05/05 01:13:09;;;;;;;3.13;2.40;;;12.40;99.90;;;;;;5053135;28;20922;-47
2022/05/05 01:15:37;;;;;;;3.27;2.70;;;12.40;99.90;;;;;;5053206;28;20473;-48
2022/05/05 01:18:04;;;;;;;4.33;2.50;;;12.50;99.90;;;;;;5053648;28;20465;-46
2022/05/05 01:20:31;;;;;;;3.20;2.90;;;12.70;99.90;;;;;;5053338;28;20441;-50
2022/05/05 01:23:00;;;;;;;2.43;2.23;;;12.50;99.90;;;;;;5052833;28;20988;-47
2022/05/05 01:28:15;;;;;;;2.63;2.43;;;11.90;99.90;;;;;;5053161;28;21003;-46
2022/05/05 01:30:43;;;;;;;3.10;2.43;;;11.80;99.90;;;;;;5053114;28;20446;-46
2022/05/05 01:33:15;;;;;;;3.50;2.97;;;11.50;99.90;;;;;;5052658;28;20853;-46
2022/05/05 01:35:43;;;;;;;2.83;2.63;;;11.50;99.90;;;;;;5053236;28;20472;-46
2022/05/05 01:38:13;;;;;;;3.17;2.87;;;11.70;99.90;;;;;;5052895;28;20841;-46
2022/05/05 01:40:41;;;;;;;2.67;2.47;;;11.70;99.90;;;;;;5052989;28;20784;-46
2022/05/05 01:43:09;;;;;;;2.53;2.33;;;11.80;99.90;;;;;;5052402;28;20938;-46
2022/05/05 01:45:36;;;;;;;2.40;2.20;;;12.00;99.90;;;;;;5052729;28;20469;-47
2022/05/05 01:48:04;;;;;;;2.90;2.50;;;12.00;99.90;;;;;;5052984;28;20496;-49
2022/05/05 01:50:31;;;;;;;2.93;2.73;;;12.00;99.90;;;;;;5052717;28;20495;-46
2022/05/05 01:52:59;;;;;;;3.40;2.90;;;11.60;99.90;;;;;;5052603;28;20492;-46
2022/05/05 01:55:30;;;;;;;2.87;2.67;;;11.40;99.90;;;;;;5052554;28;20441;-46
2022/05/05 01:57:57;;;;;;;2.80;2.43;;;10.90;99.90;;;;;;5052411;28;20468;-46
2022/05/05 02:00:25;;;;;;;3.00;2.70;;;11.00;99.90;;;;;;5052788;28;20476;-49
2022/05/05 02:02:52;;;;;;;2.80;2.40;;;11.20;99.90;;;;;;5052104;28;20481;-48
2022/05/05 02:05:20;;;;;;;2.80;2.60;;;11.30;99.90;;;;;;5052417;28;20531;-45
2022/05/05 02:07:48;;;;;;;2.53;2.33;;;11.40;99.90;;;;;;5052224;28;20894;-46
2022/05/05 02:10:16;;;;;;;3.00;2.43;;;11.40;99.90;;;;;;5052357;28;20437;-49
2022/05/05 02:12:46;;;;;;;4.23;3.03;;;11.50;99.90;;;;;;5051940;28;20486;-47
2022/05/05 02:15:15;;;;;;;2.97;2.70;;;11.60;99.90;;;;;;5052169;28;20434;-47
2022/05/05 02:17:44;;;;;;;3.53;2.47;;;11.80;99.90;;;;;;5052347;28;20461;-47
2022/05/05 02:20:13;;;;;;;2.20;1.97;;;11.70;99.90;;;;;;5052134;28;20601;-46
2022/05/05 02:22:41;;;;;;;2.30;2.10;;;11.70;99.90;;;;;;5051955;28;20442;-46
2022/05/05 02:25:08;;;;;;;2.20;2.00;;;11.50;99.90;;;;;;5051594;28;20477;-51
2022/05/05 02:27:54;;;;;;;3.47;2.60;;;11.20;99.90;;;;;;5051994;28;20985;-46
2022/05/05 02:30:23;;;;;;;2.50;2.30;;;11.20;99.90;;;;;;5051786;28;20438;-46
2022/05/05 02:32:50;;;;;;;2.90;2.10;;;11.30;99.90;;;;;;5051684;28;20440;-46
2022/05/05 02:35:18;;;;;;;3.00;2.70;;;11.40;99.90;;;;;;5051625;28;20926;-46
2022/05/05 02:40:30;;;;;;;2.57;2.37;;;11.40;99.90;;;;;;5051840;28;20980;-45
2022/05/05 02:42:59;;;;;;;2.83;2.30;;;11.40;99.90;;;;;;5051514;28;20449;-48
2022/05/05 02:45:27;;;;;;;2.97;2.77;;;11.30;99.90;;;;;;5051553;28;20915;-46
2022/05/05 02:47:54;;;;;;;4.00;2.80;;;11.30;99.90;;;;;;5051666;28;20880;-45
2022/05/05 02:50:22;;;;;;;2.50;2.30;;;11.30;99.90;;;;;;5051593;28;20476;-45
2022/05/05 02:52:48;;;;;;;2.50;2.30;;;11.40;99.90;;;;;;5051391;28;20628;-47
2022/05/05 02:55:14;;;;;;;2.90;2.70;;;11.20;99.90;;;;;;5051493;28;20820;-48
2022/05/05 02:57:41;;;;;;;2.83;2.63;;;11.30;99.90;;;;;;5051369;28;21040;-51
2022/05/05 03:00:12;;;;;;;2.47;2.27;;;11.30;99.90;;;;;;5051587;28;20999;-46
2022/05/05 03:02:41;;;;;;;2.30;2.10;;;11.40;99.90;;;;;;5051258;28;20499;-46
2022/05/05 03:05:09;;;;;;;2.63;2.43;;;11.40;99.90;;;;;;5051491;28;20555;-47
2022/05/05 03:07:36;;;;;;;2.50;2.30;;;11.30;99.90;;;;;;5050488;28;20504;-46
2022/05/05 03:10:04;;;;;;;2.63;2.43;;;11.00;99.90;;;;;;5051274;28;20857;-47
2022/05/05 03:12:31;;;;;;;3.93;2.47;;;10.70;99.90;;;;;;5051478;28;20518;-46
2022/05/05 03:14:58;;;;;;;3.70;3.40;;;10.70;99.90;;;;;;5051663;28;20484;-46
2022/05/05 03:17:26;;;;;;;2.90;2.60;;;10.90;99.90;;;;;;5051297;28;20480;-47
2022/05/05 03:19:53;;;;;;;2.70;2.50;;;10.90;99.90;;;;;;5051442;28;20441;-46
2022/05/05 03:22:20;;;;;;;3.27;2.37;;;10.80;99.90;;;;;;5051080;28;20499;-46
2022/05/05 03:24:47;;;;;;;3.50;2.90;;;10.80;99.90;;;;;;5050615;28;20487;-48
2022/05/05 03:27:14;;;;;;;2.40;2.20;;;10.90;99.90;;;;;;5051473;28;20476;-46
2022/05/05 03:29:41;;;;;;;2.97;2.67;;;10.90;99.90;;;;;;5051128;28;20953;-48
2022/05/05 03:32:09;;;;;;;2.70;2.27;;;10.90;99.90;;;;;;5051181;28;20484;-47
2022/05/05 03:34:37;;;;;;;4.23;2.33;;;10.90;99.90;;;;;;5050951;28;20864;-51
2022/05/05 03:37:05;;;;;;;4.23;2.40;;;11.00;99.90;;;;;;5051265;28;20469;-47
2022/05/05 03:39:32;;;;;;;3.17;2.87;;;10.90;99.90;;;;;;5051188;28;20928;-46
2022/05/05 03:41:58;;;;;;;2.30;2.10;;;10.60;99.90;;;;;;5051086;28;20449;-47
2022/05/05 03:44:25;;;;;;;2.57;2.37;;;10.60;99.90;;;;;;5050834;28;20481;-45
2022/05/05 03:46:52;;;;;;;3.10;2.63;;;10.80;99.90;;;;;;5050998;28;20473;-45
2022/05/05 03:49:19;;;;;;;2.70;2.33;;;11.00;99.90;;;;;;5050647;28;20521;-46
2022/05/05 03:51:48;;;;;;;2.33;1.93;;;10.80;99.90;;;;;;5050989;28;20437;-46
2022/05/05 03:54:15;;;;;;;2.73;2.50;;;10.40;99.90;;;;;;5050613;28;20871;-45
2022/05/05 03:56:41;;;;;;;2.60;2.40;;;10.20;99.90;;;;;;5050993;28;20543;-46
2022/05/05 03:59:08;;;;;;;2.87;2.53;;;10.40;99.90;;;;;;5050936;28;20500;-46
2022/05/05 04:01:35;;;;;;;2.30;2.10;;;10.40;99.90;;;;;;5050744;28;20481;-46
2022/05/05 04:04:02;;;;;;;2.40;2.10;;;10.40;99.90;;;;;;5050601;28;20441;-46
2022/05/05 04:06:29;;;;;;;2.43;2.23;;;10.50;99.90;;;;;;5050898;28;20513;-46
2022/05/05 04:08:57;;;;;;;2.90;2.50;;;10.60;99.90;;;;;;5050390;28;21041;-49
2022/05/05 04:11:24;;;;;;;3.60;3.27;;;10.60;99.90;;;;;;5050806;28;20954;-46
2022/05/05 04:13:51;;;;;;;4.03;3.63;;;10.70;99.90;;;;;;5050441;28;20484;-46
2022/05/05 04:16:18;;;;;;;15.10;13.50;;;10.60;99.90;;;;;;5050704;28;20491;-45
2022/05/05 04:18:45;;;;;;;5.60;3.97;;;10.50;99.90;;;;;;5050983;28;21041;-47
2022/05/05 04:21:12;;;;;;;5.37;4.90;;;10.40;99.90;;;;;;5054639;28;20914;-46
2022/05/05 04:23:40;;;;;;;4.40;4.00;;;10.60;99.90;;;;;;5054172;28;20449;-46
2022/05/05 04:26:11;;;;;;;4.67;3.53;;;10.90;99.90;;;;;;5053989;28;20480;-46
2022/05/05 04:28:38;;;;;;;7.87;6.17;;;10.80;99.90;;;;;;5054027;28;20897;-46
2022/05/05 04:31:05;;;;;;;5.60;5.00;;;10.80;99.90;;;;;;5054001;28;20484;-46
2022/05/05 04:33:32;;;;;;;4.50;3.53;;;10.70;99.90;;;;;;5053881;28;20491;-47
2022/05/05 04:36:00;;;;;;;3.80;3.50;;;10.60;99.90;;;;;;5054115;28;20437;-46
2022/05/05 04:38:27;;;;;;;4.20;3.80;;;10.60;99.90;;;;;;5054119;28;20497;-46
2022/05/05 04:40:54;;;;;;;5.10;4.37;;;10.40;99.90;;;;;;5053905;28;20934;-46
2022/05/05 04:43:22;;;;;;;5.60;4.33;;;10.40;99.90;;;;;;5053950;28;20515;-46
2022/05/05 04:45:49;;;;;;;4.23;3.83;;;10.30;99.90;;;;;;5053790;28;21061;-46
2022/05/05 04:48:16;;;;;;;9.30;8.40;;;10.40;99.90;;;;;;5054020;28;20461;-46
2022/05/05 04:50:43;;;;;;;4.87;4.37;;;10.60;99.90;;;;;;5053805;28;20997;-49
2022/05/05 04:53:10;;;;;;;5.37;4.87;;;10.80;99.90;;;;;;5053752;28;20531;-46
2022/05/05 04:55:37;;;;;;;8.87;4.67;;;10.90;99.90;;;;;;5053500;28;20446;-46
2022/05/05 04:58:04;;;;;;;5.40;4.10;;;11.00;99.90;;;;;;5053863;28;20461;-46
2022/05/05 05:00:33;;;;;;;4.73;4.10;;;11.10;99.90;;;;;;5053817;28;20441;-46
2022/05/05 05:03:00;;;;;;;6.13;4.97;;;11.20;99.90;;;;;;5053780;28;20437;-47
2022/05/05 05:05:27;;;;;;;7.67;5.23;;;11.30;99.90;;;;;;5053258;28;20479;-46
2022/05/05 05:07:54;;;;;;;6.77;5.90;;;11.10;99.90;;;;;;5053008;28;20465;-49
2022/05/05 05:10:21;;;;;;;9.20;5.50;;;11.00;99.90;;;;;;5052542;28;20465;-46
2022/05/05 05:12:48;;;;;;;5.10;4.60;;;11.00;99.90;;;;;;5052440;28;20495;-46
2022/05/05 05:15:15;;;;;;;4.43;4.03;;;11.00;99.90;;;;;;5052397;28;20441;-47
2022/05/05 05:17:44;;;;;;;3.80;3.40;;;11.20;99.90;;;;;;5052039;28;20515;-46
2022/05/05 05:20:12;;;;;;;3.63;3.30;;;11.20;99.90;;;;;;5052375;28;20485;-49
2022/05/05 05:22:39;;;;;;;5.57;3.50;;;11.40;99.90;;;;;;5051865;28;20448;-46
2022/05/05 05:25:07;;;;;;;3.43;2.53;;;11.50;99.90;;;;;;5051665;28;20480;-46
2022/05/05 05:27:33;;;;;;;3.67;3.30;;;11.60;99.90;;;;;;5051949;28;20559;-46
2022/05/05 05:30:00;;;;;;;3.80;3.03;;;11.60;99.90;;;;;;5051974;28;20480;-46
2022/05/05 05:32:27;;;;;;;3.80;3.37;;;11.60;99.90;;;;;;5051207;28;20488;-47
2022/05/05 05:34:56;;;;;;;3.40;2.80;;;11.40;99.90;;;;;;5051941;28;20484;-46
2022/05/05 05:37:22;;;;;;;2.90;2.70;;;11.60;99.90;;;;;;5051810;28;20477;-46
2022/05/05 05:39:49;;;;;;;3.20;2.43;;;11.70;99.90;;;;;;5052177;28;20437;-46
2022/05/05 05:42:16;;;;;;;3.77;3.13;;;11.80;99.90;;;;;;5051712;28;20968;-47
2022/05/05 05:44:43;;;;;;;3.37;3.03;;;11.70;99.90;;;;;;5051556;28;20964;-48
2022/05/05 05:47:12;;;;;;;3.40;2.97;;;11.60;99.90;;;;;;5051281;28;20508;-49
2022/05/05 05:49:39;;;;;;;2.80;2.60;;;11.70;99.90;;;;;;5051560;28;20514;-46
2022/05/05 05:52:08;;;;;;;2.77;2.57;;;11.70;99.90;;;;;;5051917;28;20198;-52
2022/05/05 05:54:35;;;;;;;3.60;2.57;;;11.70;99.90;;;;;;5051566;28;20480;-47
2022/05/05 05:57:02;;;;;;;3.93;2.83;;;11.70;99.90;;;;;;5051750;28;20935;-47
2022/05/05 05:59:29;;;;;;;2.70;2.50;;;11.40;99.90;;;;;;5051441;28;20493;-47
2022/05/05 06:04:40;;;;;;;2.70;2.50;;;11.30;99.90;;;;;;5051483;28;20424;-46
2022/05/05 06:07:08;;;;;;;6.00;3.63;;;11.50;99.90;;;;;;5051458;28;20870;-46
2022/05/05 06:09:35;;;;;;;3.23;2.63;;;11.70;99.90;;;;;;5010405;28;1235344;-46
2022/05/05 06:12:03;;;;;;;6.57;5.47;;;11.60;99.90;;;;;;5052287;28;20702;-47
2022/05/05 06:14:31;;;;;;;4.23;3.30;;;11.20;99.90;;;;;;5052000;28;20934;-48
2022/05/05 06:16:58;;;;;;;3.50;3.20;;;11.20;99.90;;;;;;5052605;28;20433;-45
2022/05/05 06:19:25;;;;;;;4.00;3.00;;;11.10;99.90;;;;;;5051997;28;20498;-46
2022/05/05 06:21:51;;;;;;;3.50;2.67;;;11.10;99.90;;;;;;5052210;28;20437;-46
2022/05/05 06:24:20;;;;;;;3.83;2.93;;;11.00;99.90;;;;;;5051640;28;20441;-51
2022/05/05 06:26:47;;;;;;;2.70;2.50;;;11.00;99.90;;;;;;5052127;28;20480;-47
2022/05/05 06:29:14;;;;;;;3.30;2.73;;;11.20;99.90;;;;;;5051713;28;20461;-46
2022/05/05 06:31:41;;;;;;;3.07;2.23;;;11.40;99.90;;;;;;5051904;28;20484;-46
2022/05/05 06:34:09;;;;;;;2.57;2.37;;;11.50;99.90;;;;;;5051672;28;20477;-47
2022/05/05 06:36:36;;;;;;;2.80;2.30;;;11.60;99.90;;;;;;5051837;28;20473;-46
2022/05/05 06:39:03;;;;;;;3.57;3.27;;;11.80;99.90;;;;;;5051920;28;20593;-46
2022/05/05 06:41:32;;;;;;;5.27;2.57;;;12.00;99.90;;;;;;5051900;28;20507;-47
2022/05/05 06:43:59;;;;;;;3.10;2.33;;;12.00;99.90;;;;;;5051626;28;20476;-47
2022/05/05 06:46:25;;;;;;;3.93;3.03;;;12.20;99.90;;;;;;5051743;28;20477;-46
2022/05/05 06:48:52;;;;;;;5.13;3.83;;;12.30;99.90;;;;;;5051613;28;20505;-47
2022/05/05 06:51:19;;;;;;;4.50;3.40;;;12.40;99.90;;;;;;5051372;28;20437;-49
2022/05/05 06:53:46;;;;;;;3.13;2.83;;;12.40;99.90;;;;;;5051673;28;20433;-46
2022/05/05 06:56:13;;;;;;;4.10;2.60;;;12.50;99.90;;;;;;5051289;28;20860;-46
2022/05/05 06:58:41;;;;;;;4.40;3.20;;;12.60;99.90;;;;;;5051293;28;20523;-47
2022/05/05 07:05:23;;;;;;;3.43;2.37;;;12.70;99.90;;;;;;5051138;28;20440;-47
2022/05/05 07:06:39;;;;;;;3.80;2.50;;;12.80;99.90;;;;;;5051248;28;20469;-47
2022/05/05 07:11:50;;;;;;;3.30;2.57;;;12.90;99.90;;;;;;5051569;28;20779;-46
2022/05/05 07:14:18;;;;;;;3.13;2.70;;;12.90;99.90;;;;;;5051108;28;20449;-46
2022/05/05 07:16:45;;;;;;;2.40;2.20;;;13.00;99.90;;;;;;5051513;28;20864;-46
2022/05/05 07:19:12;;;;;;;2.47;2.10;;;13.10;99.90;;;;;;5050881;28;20465;-49
2022/05/05 07:21:39;;;;;;;4.60;3.10;;;13.20;99.90;;;;;;5051445;28;20441;-46
2022/05/05 07:24:06;;;;;;;4.37;3.17;;;13.30;99.90;;;;;;5051012;28;20484;-47
2022/05/05 07:26:33;;;;;;;3.93;2.77;;;13.40;99.90;;;;;;5050853;28;20530;-47
2022/05/05 07:29:00;;;;;;;5.27;2.70;;;13.40;99.90;;;;;;5051305;28;20503;-47
2022/05/05 07:31:29;;;;;;;3.60;3.30;;;13.50;99.90;;;;;;5051422;28;20473;-48
2022/05/05 07:33:57;;;;;;;3.23;2.30;;;13.50;99.90;;;;;;5050835;28;20448;-46
2022/05/05 07:36:24;;;;;;;3.50;2.80;;;13.70;99.90;;;;;;5051276;28;20528;-46
2022/05/05 07:38:51;;;;;;;3.27;2.97;;;13.70;99.90;;;;;;5051036;28;20465;-49
2022/05/05 07:41:18;;;;;;;3.33;3.00;;;13.80;99.90;;;;;;5051002;28;20441;-47
2022/05/05 07:43:45;;;;;;;3.27;2.97;;;13.90;99.90;;;;;;5050999;28;20484;-46
2022/05/05 07:46:14;;;;;;;2.80;2.40;;;13.90;99.90;;;;;;5051076;28;20496;-46
2022/05/05 07:48:43;;;;;;;2.90;2.47;;;14.00;99.90;;;;;;5050813;28;20493;-47
2022/05/05 07:51:10;;;;;;;10.73;6.10;;;14.10;99.90;;;;;;5051036;28;20449;-47
2022/05/05 07:53:37;;;;;;;5.07;2.90;;;14.10;99.90;;;;;;5050837;28;20430;-47
2022/05/05 07:56:05;;;;;;;2.87;2.67;;;14.10;99.90;;;;;;5055001;28;20441;-48
2022/05/05 07:58:33;;;;;;;4.50;4.10;;;14.20;99.90;;;;;;5054836;28;20564;-47
2022/05/05 08:01:00;;;;;;;4.97;3.10;;;14.30;99.90;;;;;;5054676;28;20452;-47
2022/05/05 08:03:28;;;;;;;3.80;2.67;;;14.30;99.90;;;;;;5054525;28;20941;-49
2022/05/05 08:05:56;;;;;;;3.33;2.53;;;14.40;99.90;;;;;;5054651;28;20449;-51
2022/05/05 08:08:23;;;;;;;4.23;3.07;;;14.50;99.90;;;;;;5054225;28;21051;-47
2022/05/05 08:10:53;;;;;;;13.67;4.60;;;14.60;99.90;;;;;;5054466;28;20507;-47
2022/05/05 08:13:20;;;;;;;10.33;3.70;;;14.90;99.90;;;;;;5054221;28;20451;-47
2022/05/05 08:15:46;;;;;;;6.30;3.80;;;15.00;99.90;;;;;;5054479;28;20524;-47
2022/05/05 08:18:14;;;;;;;34.43;5.70;;;15.20;99.90;;;;;;5054280;28;20492;-48
2022/05/05 08:20:41;;;;;;;12.90;4.00;;;15.40;99.90;;;;;;5054331;28;20441;-47
2022/05/05 08:23:09;;;;;;;3.80;2.67;;;15.50;99.90;;;;;;5054174;28;20532;-46
2022/05/05 08:28:29;;;;;;;4.30;3.00;;;16.00;99.90;;;;;;5054296;28;20546;-52
2022/05/05 08:30:56;;;;;;;3.17;2.87;;;16.30;99.90;;;;;;5054057;28;20528;-46
2022/05/05 08:33:24;;;;;;;4.30;2.63;;;16.40;99.90;;;;;;5053840;28;20481;-46
2022/05/05 08:35:51;;;;;;;2.63;2.43;;;16.50;99.90;;;;;;5053966;28;20475;-50
2022/05/05 08:38:19;;;;;;;6.30;3.43;;;16.60;99.90;;;;;;5053917;28;20487;-47
2022/05/05 08:40:47;;;;;;;3.57;2.77;;;16.60;99.90;;;;;;5053825;28;20491;-46
2022/05/05 08:43:15;;;;;;;3.93;3.53;;;16.80;99.90;;;;;;5053888;28;20514;-47
2022/05/05 08:45:43;;;;;;;3.00;2.70;;;16.90;99.90;;;;;;5054165;28;20477;-50
2022/05/05 08:48:12;;;;;;;3.03;2.70;;;17.00;99.90;;;;;;5053823;28;20837;-47
2022/05/05 08:50:40;;;;;;;7.57;3.87;;;17.00;99.90;;;;;;5053673;28;20488;-47
2022/05/05 08:53:08;;;;;;;3.90;2.83;;;17.10;99.90;;;;;;5053585;28;20473;-47
2022/05/05 08:55:37;;;;;;;5.83;2.77;;;17.00;99.90;;;;;;5053735;28;20879;-47
2022/05/05 08:58:04;;;;;;;3.23;2.87;;;17.00;99.90;;;;;;5053609;28;20899;-47
2022/05/05 09:00:32;;;;;;;4.37;2.50;;;17.10;99.90;;;;;;5053760;28;20541;-47
2022/05/05 09:03:00;;;;;;;3.07;2.83;;;17.20;99.90;;;;;;5053385;28;20492;-52
2022/05/05 09:05:46;;;;;;;5.10;4.00;;;17.20;99.90;;;;;;5052139;28;20450;-50
2022/05/05 09:08:13;;;;;;;13.43;5.97;;;17.20;99.90;;;;;;5053207;28;20988;-47
2022/05/05 09:10:45;;;;;;;6.67;3.80;;;17.20;99.90;;;;;;5053303;28;20927;-47
2022/05/05 09:13:13;;;;;;;3.30;2.97;;;17.10;99.90;;;;;;5053246;28;20445;-47
2022/05/05 09:15:42;;;;;;;16.80;4.13;;;17.00;99.90;;;;;;5053408;28;20498;-47
2022/05/05 09:18:13;;;;;;;12.13;3.53;;;17.00;99.90;;;;;;5053126;28;20519;-46
2022/05/05 09:20:40;;;;;;;2.37;2.17;;;16.90;99.90;;;;;;5053368;28;20487;-47
2022/05/05 09:23:08;;;;;;;2.90;2.60;;;16.90;99.90;;;;;;5053257;28;20473;-47
2022/05/05 09:25:46;;;;;;;4.50;2.20;;;16.90;99.90;;;;;;5053204;28;20473;-47
2022/05/05 09:28:20;;;;;;;2.97;2.77;;;16.90;99.90;;;;;;5053043;28;20520;-47
2022/05/05 09:30:48;;;;;;;2.70;2.50;;;17.00;99.90;;;;;;5053224;28;20503;-48
2022/05/05 09:33:17;;;;;;;3.23;2.93;;;17.00;99.90;;;;;;5053059;28;20545;-48
2022/05/05 09:35:45;;;;;;;4.00;2.70;;;17.00;99.90;;;;;;5053030;28;20527;-47
2022/05/05 09:38:12;;;;;;;3.20;2.90;;;17.00;99.90;;;;;;5052626;28;20454;-47
2022/05/05 09:40:39;;;;;;;2.80;2.60;;;17.00;99.90;;;;;;5052947;28;20492;-49
2022/05/05 09:43:11;;;;;;;3.13;2.93;;;17.00;99.90;;;;;;5052694;28;20438;-47
2022/05/05 09:45:38;;;;;;;3.90;2.70;;;17.10;99.90;;;;;;5052937;28;20441;-47
2022/05/05 09:48:09;;;;;;;2.97;2.67;;;17.10;99.90;;;;;;5052509;28;20925;-50
2022/05/05 09:50:37;;;;;;;3.10;2.70;;;17.00;99.90;;;;;;5052831;28;20450;-50
2022/05/05 09:58:39;;;;;;;8.00;3.80;;;17.00;99.90;;;;;;5052718;28;20436;-47
2022/05/05 10:01:09;;;;;;;3.27;2.97;;;17.10;99.90;;;;;;5052188;28;20923;-47
2022/05/05 10:04:00;;;;;;;5.07;2.93;;;17.20;99.90;;;;;;5052332;28;20442;-46
2022/05/05 10:06:29;;;;;;;1999.90;393.07;;;17.30;99.90;;;;;;5052455;28;20441;-47
2022/05/05 10:08:57;;;;;;;16.93;5.50;;;17.30;99.90;;;;;;5052186;28;20485;-47
2022/05/05 10:11:25;;;;;;;3.13;2.80;;;17.20;99.90;;;;;;5052875;28;20456;-46
2022/05/05 10:13:56;;;;;;;3.40;2.83;;;17.20;99.90;;;;;;5052199;28;20952;-46
2022/05/05 10:16:24;;;;;;;3.23;2.93;;;17.20;99.90;;;;;;5051833;28;20460;-47
2022/05/05 10:18:52;;;;;;;2.70;2.50;;;17.20;99.90;;;;;;5052100;28;20899;-46
2022/05/05 10:21:31;;;;;;;3.80;2.97;;;17.30;99.90;;;;;;5052312;28;20450;-47
2022/05/05 10:24:07;;;;;;;3.80;2.50;;;17.40;99.90;;;;;;5052244;28;20441;-47
2022/05/05 10:26:34;;;;;;;3.47;2.83;;;17.40;99.90;;;;;;5052348;28;20452;-47
2022/05/05 10:29:03;;;;;;;2.70;2.50;;;17.50;99.90;;;;;;5052106;28;20560;-47
2022/05/05 10:31:43;;;;;;;2.87;2.63;;;17.40;99.90;;;;;;5069439;28;20472;-44
2022/05/05 10:34:16;;;;;;;2.80;2.60;;;17.20;99.90;;;;;;5070924;28;20957;-49
2022/05/05 10:36:59;;;;;;;5.50;3.20;;;17.20;99.90;;;;;;5071601;28;20965;-47
2022/05/05 10:39:41;;;;;;;3.90;2.60;;;17.20;99.90;;;;;;5071629;28;20973;-47
2022/05/05 10:42:33;;;;;;;4.00;3.60;;;17.20;99.90;;;;;;5071314;28;20470;-45
2022/05/05 10:45:07;;;;;;;3.40;3.00;;;17.30;99.90;;;;;;5071628;28;20448;-44
2022/05/05 10:48:18;;;;;;;5.17;4.60;;;17.40;99.90;;;;;;5071306;28;21036;-47
2022/05/05 10:50:57;;;;;;;3.77;3.47;;;17.50;99.90;;;;;;5071666;28;20440;-46
2022/05/05 10:53:30;;;;;;;4.20;2.70;;;17.60;99.90;;;;;;5068895;28;20961;-47
2022/05/05 10:55:58;;;;;;;2.80;2.60;;;17.70;99.90;;;;;;5069941;28;20445;-44
2022/05/05 10:59:00;;;;;;;2.93;2.63;;;17.80;99.90;;;;;;5069086;28;20551;-47
2022/05/05 11:01:30;;;;;;;3.03;2.60;;;17.80;99.90;;;;;;5070940;28;20451;-44
2022/05/05 11:04:25;;;;;;;3.07;2.73;;;17.80;99.90;;;;;;5070968;28;20475;-44
2022/05/05 11:07:23;;;;;;;8.93;3.20;;;18.00;99.90;;;;;;5071398;28;20630;-42
2022/05/05 11:09:50;;;;;;;9.57;3.70;;;18.00;99.90;;;;;;5071246;28;20440;-44
2022/05/05 11:12:19;;;;;;;4.60;2.40;;;18.10;99.90;;;;;;5070418;28;20440;-47
2022/05/05 11:23:32;;;;;;;7.13;2.50;;;18.70;98.10;;;;;;5071125;28;20412;-45
2022/05/05 11:26:00;;;;;;;2.17;1.93;;;18.90;98.40;;;;;;5070966;28;20475;-45
2022/05/05 11:28:29;;;;;;;3.63;2.77;;;19.00;99.90;;;;;;5070927;28;20499;-44
2022/05/05 11:30:56;;;;;;;2.20;2.00;;;19.10;98.00;;;;;;5075369;28;20841;-47
2022/05/05 11:33:24;;;;;;;7.63;3.50;;;19.20;99.90;;;;;;5075271;28;20476;-44
2022/05/05 11:35:58;;;;;;;3.90;2.63;;;19.10;95.90;;;;;;5075105;28;20440;-44
2022/05/05 11:38:28;;;;;;;6.97;2.60;;;19.20;95.00;;;;;;5075271;28;20463;-44
2022/05/05 11:41:00;;;;;;;6.00;2.43;;;19.10;96.10;;;;;;5075191;28;20432;-46
2022/05/05 11:46:14;;;;;;;5.13;2.60;;;19.20;95.80;;;;;;5075221;28;20420;-44
2022/05/05 11:48:44;;;;;;;3.20;2.50;;;19.20;94.20;;;;;;5074889;28;20537;-44
2022/05/05 11:51:11;;;;;;;2.10;1.90;;;19.30;95.00;;;;;;5074655;28;20448;-45
2022/05/05 11:53:38;;;;;;;2.30;2.10;;;19.40;95.40;;;;;;5075016;28;20884;-44
2022/05/05 11:56:12;;;;;;;2.20;2.00;;;19.50;95.10;;;;;;5074957;28;20443;-46
2022/05/05 12:01:39;;;;;;;4.90;2.50;;;19.50;96.30;;;;;;5074724;28;20415;-49
2022/05/05 12:04:12;;;;;;;3.17;2.50;;;19.40;94.80;;;;;;5074866;28;20424;-47
2022/05/05 12:06:40;;;;;;;2.40;1.90;;;19.40;95.30;;;;;;5074629;28;20529;-47
2022/05/05 12:09:08;;;;;;;9.40;2.57;;;19.50;95.90;;;;;;5075283;28;20860;-46
2022/05/05 12:11:39;;;;;;;2.80;2.43;;;19.20;95.50;;;;;;5074452;28;20452;-45
2022/05/05 12:14:09;;;;;;;2.60;2.00;;;19.10;94.30;;;;;;5074488;28;20439;-47
2022/05/05 12:16:37;;;;;;;2.47;2.27;;;19.20;94.90;;;;;;5074465;28;20535;-45
2022/05/05 12:19:12;;;;;;;2.67;2.07;;;19.10;96.10;;;;;;5074580;28;21183;-45
2022/05/05 12:21:52;;;;;;;8.83;2.90;;;19.20;96.90;;;;;;5074886;28;20443;-48
2022/05/05 12:24:22;;;;;;;14.63;3.73;;;19.30;95.20;;;;;;5074290;28;21080;-45
2022/05/05 12:26:49;;;;;;;17.70;4.80;;;19.20;95.30;;;;;;5074584;28;20452;-44
2022/05/05 12:29:18;;;;;;;2.20;2.00;;;19.20;94.80;;;;;;5074256;28;20545;-47
2022/05/05 12:32:02;;;;;;;2.17;1.97;;;19.10;93.70;;;;;;5074707;28;20443;-52
2022/05/05 12:34:30;;;;;;;3.63;2.23;;;19.10;93.00;;;;;;5073971;28;20436;-44
2022/05/05 12:37:13;;;;;;;2.50;2.00;;;19.10;93.70;;;;;;5073957;28;20475;-45
2022/05/05 12:39:58;;;;;;;3.23;2.10;;;19.20;94.30;;;;;;5073759;28;20432;-41
2022/05/05 12:42:25;;;;;;;3.00;2.43;;;19.20;94.90;;;;;;5073581;28;20462;-47
2022/05/05 12:44:52;;;;;;;15.67;2.90;;;19.20;97.00;;;;;;5073998;28;20445;-45
2022/05/05 12:47:24;;;;;;;1.93;1.73;;;19.20;93.90;;;;;;5073745;28;20494;-45
2022/05/05 12:49:52;;;;;;;2.43;2.23;;;19.20;94.80;;;;;;5073763;28;20511;-47
2022/05/05 13:00:51;;;;;;;4.80;2.40;;;19.20;94.40;;;;;;5073475;28;20448;-46
2022/05/05 13:03:21;;;;;;;2.77;2.47;;;19.10;94.60;;;;;;5073168;28;20887;-46
2022/05/05 13:05:50;;;;;;;2.57;2.00;;;19.20;94.50;;;;;;5073143;28;20937;-49
2022/05/05 13:08:17;;;;;;;2.20;2.00;;;19.10;96.30;;;;;;5072841;28;20533;-45
2022/05/05 13:10:44;;;;;;;2.70;2.30;;;19.10;93.80;;;;;;5073512;28;20444;-46
2022/05/05 13:13:11;;;;;;;5.00;2.10;;;19.00;93.60;;;;;;5072973;28;20472;-47
2022/05/05 13:15:38;;;;;;;14.60;7.10;;;19.00;93.40;;;;;;5073235;28;20440;-45
2022/05/05 13:18:05;;;;;;;2.43;1.80;;;19.00;94.60;;;;;;5073067;28;20510;-47
2022/05/05 13:20:33;;;;;;;13.43;3.50;;;19.00;93.10;;;;;;5072999;28;20440;-45
2022/05/05 13:23:01;;;;;;;1.90;1.57;;;18.90;93.50;;;;;;5072882;28;20803;-46
2022/05/05 13:25:29;;;;;;;4.60;2.37;;;18.90;94.10;;;;;;5072864;28;20476;-47
2022/05/05 13:27:56;;;;;;;3.17;2.20;;;18.90;93.60;;;;;;5072607;28;20492;-48
2022/05/05 13:30:23;;;;;;;2.30;2.10;;;18.80;93.50;;;;;;5072698;28;20476;-50
2022/05/05 13:32:50;;;;;;;3.33;2.20;;;18.70;92.60;;;;;;5072959;28;20452;-46
2022/05/05 13:35:17;;;;;;;18.90;3.40;;;18.80;94.70;;;;;;5072483;28;21022;-45
2022/05/05 13:37:44;;;;;;;2.37;1.87;;;18.80;94.20;;;;;;5072839;28;21078;-47
2022/05/05 13:40:13;;;;;;;5.13;2.00;;;18.80;93.70;;;;;;5072339;28;20480;-46
2022/05/05 13:42:40;;;;;;;3.57;2.17;;;18.80;95.00;;;;;;5072335;28;20581;-46
2022/05/05 13:45:08;;;;;;;2.60;2.10;;;18.90;94.20;;;;;;5072605;28;20436;-45